Time;durP1;ratioP1;P1;durP2;ratioP2;P2;SDS_P1;SDS_P2;PMS_P1;PMS_P2;Temp;Humidity;BMP_temperature;BMP_pressure;BME280_temperature;BME280_humidity;BME280_pressure;Samples;Min_cycle;Max_cycle;Signal;HPM_P1;HPM_P2
2023/08/24 00:01:58;;;;;;;6.15;5.60;;;;;;;25.04;84.09;100656.34;5021018;28;20474;-63
2023/08/24 00:04:24;;;;;;;6.05;5.45;;;;;;;25.38;81.67;100655.41;5032300;28;20103;-63
2023/08/24 00:06:49;;;;;;;5.55;5.05;;;;;;;25.56;80.32;100648.25;5031279;28;20346;-63
2023/08/24 00:09:15;;;;;;;7.40;5.18;;;;;;;25.60;79.77;100652.06;5030352;28;20052;-62
2023/08/24 00:11:40;;;;;;;8.05;5.85;;;;;;;25.61;79.64;100648.34;5025694;28;20501;-63
2023/08/24 00:14:06;;;;;;;6.20;5.60;;;;;;;25.62;79.55;100647.28;5027609;28;20057;-64
2023/08/24 00:16:32;;;;;;;8.73;5.45;;;;;;;25.58;80.28;100651.50;5022459;28;20076;-64
2023/08/24 00:18:58;;;;;;;6.30;4.57;;;;;;;25.55;79.87;100652.78;5026098;28;20049;-64
2023/08/24 00:21:23;;;;;;;7.68;5.05;;;;;;;25.57;79.59;100647.19;5031686;28;20036;-64
2023/08/24 00:23:52;;;;;;;7.50;5.82;;;;;;;25.57;79.54;100648.00;5033396;28;20481;-64
2023/08/24 00:26:18;;;;;;;5.40;4.90;;;;;;;25.53;79.94;100646.88;5029508;28;20041;-64
2023/08/24 00:28:44;;;;;;;7.38;5.28;;;;;;;25.42;80.52;100648.56;5016763;28;20088;-64
2023/08/24 00:31:09;;;;;;;6.43;4.63;;;;;;;25.38;80.59;100639.41;5027078;28;20033;-64
2023/08/24 00:33:36;;;;;;;10.10;5.45;;;;;;;25.42;80.09;100639.75;5026708;28;20051;-64
2023/08/24 00:36:02;;;;;;;8.55;6.10;;;;;;;25.49;79.57;100639.59;5031344;28;20057;-65
2023/08/24 00:38:27;;;;;;;6.07;5.47;;;;;;;25.50;79.66;100635.91;5032709;28;20167;-64
2023/08/24 00:40:53;;;;;;;7.95;5.65;;;;;;;25.48;79.72;100643.31;5030951;28;20090;-64
2023/08/24 00:43:23;;;;;;;7.35;5.53;;;;;;;25.43;80.20;100647.50;5026850;28;20037;-65
2023/08/24 00:45:51;;;;;;;7.85;5.68;;;;;;;25.45;79.71;100645.41;5027589;28;20112;-64
2023/08/24 00:48:18;;;;;;;7.35;5.50;;;;;;;25.50;79.36;100643.91;5034957;28;20039;-65
2023/08/24 00:50:43;;;;;;;6.55;4.90;;;;;;;25.54;78.91;100647.69;5038453;28;20040;-64
2023/08/24 00:53:09;;;;;;;7.95;5.97;;;;;;;25.48;79.24;100644.13;5029577;28;20038;-64
2023/08/24 00:55:34;;;;;;;5.80;5.30;;;;;;;25.35;79.87;100639.06;5031128;28;20034;-64
2023/08/24 00:58:02;;;;;;;6.70;5.57;;;;;;;25.31;80.00;100633.41;5026514;28;20026;-64
2023/08/24 01:00:28;;;;;;;6.68;5.22;;;;;;;25.31;79.99;100644.06;5031402;28;20037;-64
2023/08/24 01:02:53;;;;;;;6.43;4.85;;;;;;;25.40;79.38;100642.66;5031032;28;20033;-64
2023/08/24 01:05:19;;;;;;;6.03;5.35;;;;;;;25.41;79.26;100633.59;5027956;28;20143;-64
2023/08/24 01:07:44;;;;;;;7.60;5.00;;;;;;;25.44;79.53;100641.13;5025017;28;20063;-64
2023/08/24 01:10:11;;;;;;;7.68;4.82;;;;;;;25.34;80.97;100642.78;5031554;28;20473;-64
2023/08/24 01:12:48;;;;;;;7.97;4.65;;;;;;;25.09;81.83;100635.09;5028973;28;20397;-64
2023/08/24 01:15:21;;;;;;;5.70;5.10;;;;;;;25.20;80.56;100642.25;5030956;28;20123;-64
2023/08/24 01:17:49;;;;;;;6.82;5.20;;;;;;;25.32;79.69;100645.69;5026956;28;20489;-64
2023/08/24 01:20:16;;;;;;;5.35;4.70;;;;;;;25.43;79.06;100636.03;5027703;28;20488;-63
2023/08/24 01:22:41;;;;;;;6.63;5.07;;;;;;;25.50;78.32;100638.56;5034593;28;20041;-64
2023/08/24 01:25:12;;;;;;;5.30;4.72;;;;;;;25.46;78.68;100639.03;5028831;28;22185;-64
2023/08/24 01:27:39;;;;;;;8.05;5.43;;;;;;;25.45;78.44;100633.94;5032002;28;20029;-64
2023/08/24 01:30:05;;;;;;;7.72;5.43;;;;;;;25.43;78.55;100631.50;5025063;28;20504;-64
2023/08/24 01:32:34;;;;;;;6.53;5.43;;;;;;;25.43;78.47;100636.84;5024820;28;20120;-64
2023/08/24 01:35:05;;;;;;;8.38;4.97;;;;;;;25.44;78.22;100627.78;5028386;28;20385;-64
2023/08/24 01:37:32;;;;;;;7.35;4.90;;;;;;;25.39;78.58;100634.88;5029982;28;20053;-64
2023/08/24 01:40:10;;;;;;;7.97;5.20;;;;;;;25.36;78.98;100630.84;5027100;28;20022;-64
2023/08/24 01:42:57;;;;;;;5.78;4.65;;;;;;;25.28;79.41;100628.53;5032986;28;20202;-64
2023/08/24 01:45:27;;;;;;;7.13;5.55;;;;;;;25.19;79.80;100621.97;5026153;28;20050;-64
2023/08/24 01:47:54;;;;;;;8.82;4.88;;;;;;;25.20;79.70;100625.44;5027512;28;20029;-64
2023/08/24 01:50:20;;;;;;;5.93;4.80;;;;;;;25.17;79.72;100625.91;5026538;28;20044;-64
2023/08/24 01:52:45;;;;;;;7.30;4.35;;;;;;;25.11;80.00;100622.31;5025974;28;20026;-64
2023/08/24 01:55:15;;;;;;;5.82;5.07;;;;;;;25.12;79.65;100618.63;5029325;28;20363;-64
2023/08/24 01:57:40;;;;;;;10.05;5.70;;;;;;;25.13;79.72;100617.56;5030126;28;20083;-64
2023/08/24 02:00:07;;;;;;;9.05;4.93;;;;;;;25.10;79.62;100626.03;5029346;28;20037;-64
2023/08/24 02:02:34;;;;;;;6.43;5.45;;;;;;;25.11;79.62;100622.31;5027576;28;20033;-64
2023/08/24 02:05:00;;;;;;;6.85;5.65;;;;;;;25.18;79.12;100622.19;5030630;28;20128;-64
2023/08/24 02:07:25;;;;;;;9.77;5.40;;;;;;;25.16;79.16;100627.75;5030348;28;20116;-64
2023/08/24 02:09:51;;;;;;;6.07;5.25;;;;;;;25.08;79.61;100617.47;5030556;28;20025;-64
2023/08/24 02:12:16;;;;;;;6.20;4.82;;;;;;;25.06;79.83;100633.69;5028329;28;20132;-64
2023/08/24 02:14:42;;;;;;;6.45;5.25;;;;;;;25.01;79.96;100633.63;5029058;28;20044;-64
2023/08/24 02:17:07;;;;;;;7.55;5.78;;;;;;;24.99;80.15;100629.56;5025639;28;20039;-64
2023/08/24 02:19:32;;;;;;;5.65;5.10;;;;;;;24.95;80.22;100628.38;5033729;28;20033;-64
2023/08/24 02:21:58;;;;;;;5.68;5.10;;;;;;;24.91;80.47;100624.56;5030138;28;20053;-64
2023/08/24 02:24:23;;;;;;;5.72;5.13;;;;;;;24.89;80.30;100624.81;5027881;28;20117;-63
2023/08/24 02:26:49;;;;;;;6.07;5.35;;;;;;;24.91;80.36;100617.38;5027172;28;20381;-64
2023/08/24 02:29:14;;;;;;;10.55;5.80;;;;;;;24.94;80.20;100622.25;5031448;28;20033;-64
2023/08/24 02:31:40;;;;;;;6.30;5.70;;;;;;;24.92;80.15;100620.84;5027256;28;20033;-64
2023/08/24 02:34:06;;;;;;;5.43;4.93;;;;;;;24.94;80.09;100621.44;5028567;28;20029;-64
2023/08/24 02:36:33;;;;;;;8.70;5.20;;;;;;;24.92;80.34;100623.53;5029595;28;20057;-63
2023/08/24 02:38:59;;;;;;;5.40;4.90;;;;;;;24.91;80.31;100619.25;5029801;28;20064;-64
2023/08/24 02:41:26;;;;;;;6.60;5.22;;;;;;;24.87;80.29;100618.09;5023009;28;20469;-64
2023/08/24 02:43:51;;;;;;;7.95;5.45;;;;;;;24.86;80.30;100617.28;5030189;28;20029;-64
2023/08/24 02:46:18;;;;;;;10.55;5.20;;;;;;;24.89;80.16;100618.66;5018409;28;20478;-64
2023/08/24 02:48:44;;;;;;;9.40;5.50;;;;;;;24.91;80.07;100619.25;5026536;28;20037;-64
2023/08/24 02:51:10;;;;;;;6.60;5.07;;;;;;;24.86;80.30;100619.13;5023573;28;20037;-64
2023/08/24 02:53:36;;;;;;;5.82;5.15;;;;;;;24.80;80.45;100616.34;5024123;28;20144;-63
2023/08/24 02:56:02;;;;;;;8.10;5.63;;;;;;;24.78;80.96;100622.97;5029049;28;20068;-64
2023/08/24 02:58:28;;;;;;;7.63;5.28;;;;;;;24.72;80.93;100627.38;5029676;28;20131;-64
2023/08/24 03:00:53;;;;;;;7.00;5.38;;;;;;;24.67;81.22;100621.09;5027418;28;20033;-64
2023/08/24 03:03:19;;;;;;;5.95;4.80;;;;;;;24.61;81.81;100617.53;5028529;28;20116;-64
2023/08/24 03:05:59;;;;;;;6.45;5.13;;;;;;;24.52;82.42;100615.47;5028931;28;20033;-64
2023/08/24 03:08:25;;;;;;;7.90;5.72;;;;;;;24.43;82.46;100607.00;5022215;28;20064;-63
2023/08/24 03:10:51;;;;;;;8.45;5.25;;;;;;;24.43;82.42;100613.16;5027717;28;20026;-64
2023/08/24 03:13:16;;;;;;;10.77;5.90;;;;;;;24.43;82.34;100609.69;5030571;28;20087;-64
2023/08/24 03:15:42;;;;;;;8.40;5.43;;;;;;;24.41;82.38;100606.44;5022441;28;20180;-64
2023/08/24 03:18:07;;;;;;;7.07;5.03;;;;;;;24.44;82.49;100605.97;5025885;28;20037;-64
2023/08/24 03:20:33;;;;;;;7.65;5.43;;;;;;;24.46;82.17;100610.03;5026576;28;20037;-63
2023/08/24 03:22:58;;;;;;;9.10;5.68;;;;;;;24.60;81.20;100610.56;5029900;28;20552;-64
2023/08/24 03:25:24;;;;;;;7.90;6.25;;;;;;;24.70;80.51;100608.13;5028953;28;20435;-63
2023/08/24 03:27:50;;;;;;;6.30;5.65;;;;;;;24.76;80.49;100617.06;5024236;28;20029;-64
2023/08/24 03:30:15;;;;;;;5.82;5.00;;;;;;;24.74;80.34;100611.97;5031519;28;20037;-65
2023/08/24 03:32:41;;;;;;;6.40;5.80;;;;;;;24.64;80.86;100614.41;5028002;28;20036;-64
2023/08/24 03:35:07;;;;;;;8.13;5.57;;;;;;;24.66;81.01;100612.31;5028472;28;20478;-64
2023/08/24 03:37:33;;;;;;;7.10;5.90;;;;;;;24.67;80.95;100611.25;5024663;28;20034;-64
2023/08/24 03:39:58;;;;;;;6.47;5.32;;;;;;;24.66;80.91;100604.31;5029169;28;20034;-66
2023/08/24 03:42:24;;;;;;;6.15;5.55;;;;;;;24.58;81.13;100602.00;5028858;28;20441;-66
2023/08/24 03:44:49;;;;;;;6.80;5.80;;;;;;;24.57;81.27;100602.28;5035056;28;20465;-66
2023/08/24 03:47:15;;;;;;;6.60;5.85;;;;;;;24.60;80.77;100605.25;5026424;28;20052;-66
2023/08/24 03:49:44;;;;;;;9.75;5.32;;;;;;;24.74;79.82;100603.16;5026246;28;20059;-66
2023/08/24 03:52:09;;;;;;;9.38;5.32;;;;;;;24.80;79.63;100604.88;5033293;28;20375;-65
2023/08/24 03:54:35;;;;;;;6.55;5.82;;;;;;;24.80;79.76;100604.88;5033369;28;20120;-65
2023/08/24 03:57:01;;;;;;;8.07;5.18;;;;;;;24.77;79.71;100600.03;5033809;28;20033;-65
2023/08/24 03:59:27;;;;;;;10.18;6.28;;;;;;;24.78;79.71;100602.44;5028696;28;20124;-65
2023/08/24 04:01:52;;;;;;;8.40;5.85;;;;;;;24.83;79.24;100608.94;5032365;28;20081;-66
2023/08/24 04:04:18;;;;;;;8.80;5.70;;;;;;;24.84;79.22;100602.56;5034058;28;20044;-65
2023/08/24 04:06:44;;;;;;;6.18;5.57;;;;;;;24.78;79.55;100602.44;5022406;28;20038;-66
2023/08/24 04:09:09;;;;;;;7.15;5.97;;;;;;;24.71;80.08;100606.28;5024053;28;20059;-66
2023/08/24 04:11:35;;;;;;;7.22;5.72;;;;;;;24.68;80.30;100607.56;5031682;28;20084;-66
2023/08/24 04:14:01;;;;;;;6.32;5.65;;;;;;;24.61;80.63;100611.38;5032536;28;20393;-65
2023/08/24 04:16:26;;;;;;;6.50;5.35;;;;;;;24.55;81.19;100612.34;5032375;28;20080;-66
2023/08/24 04:18:52;;;;;;;6.82;5.90;;;;;;;24.39;81.89;100613.84;5023945;28;20759;-66
2023/08/24 04:21:17;;;;;;;6.10;5.45;;;;;;;24.26;82.59;100608.75;5032092;28;20048;-66
2023/08/24 04:23:44;;;;;;;8.18;5.75;;;;;;;24.18;83.27;100607.19;5033809;28;20048;-66
2023/08/24 04:26:13;;;;;;;6.93;5.55;;;;;;;24.19;83.19;100605.34;5038246;28;20548;-66
2023/08/24 04:28:39;;;;;;;8.38;5.93;;;;;;;24.23;82.87;100604.66;5028395;28;20087;-65
2023/08/24 04:31:04;;;;;;;7.38;5.85;;;;;;;24.30;82.44;100613.38;5022412;28;20036;-65
2023/08/24 04:33:30;;;;;;;12.75;6.07;;;;;;;24.35;82.17;100616.16;5029475;28;20037;-66
2023/08/24 04:35:55;;;;;;;8.02;5.95;;;;;;;24.39;82.20;100619.16;5030191;28;20489;-64
2023/08/24 04:38:21;;;;;;;6.80;6.20;;;;;;;24.43;81.86;100615.00;5026541;28;20029;-63
2023/08/24 04:40:54;;;;;;;9.27;6.10;;;;;;;24.44;81.73;100620.09;5031454;28;20117;-63
2023/08/24 04:43:21;;;;;;;7.43;5.78;;;;;;;24.50;81.40;100621.03;5031128;28;20068;-64
2023/08/24 04:45:48;;;;;;;10.20;5.80;;;;;;;24.55;81.00;100628.31;5028910;28;20049;-63
2023/08/24 04:48:14;;;;;;;7.10;6.22;;;;;;;24.60;80.97;100631.88;5026449;28;20033;-63
2023/08/24 04:50:43;;;;;;;6.60;6.00;;;;;;;24.63;80.34;100630.59;5031433;28;20035;-63
2023/08/24 04:53:09;;;;;;;6.40;5.82;;;;;;;24.66;80.49;100630.97;5024439;28;20504;-64
2023/08/24 04:55:34;;;;;;;7.13;6.15;;;;;;;24.60;80.97;100631.06;5020352;28;20088;-63
2023/08/24 04:57:59;;;;;;;9.02;6.25;;;;;;;24.54;81.63;100640.03;5024991;28;20538;-63
2023/08/24 05:00:25;;;;;;;6.68;5.82;;;;;;;24.39;82.23;100638.63;5032264;28;20489;-63
2023/08/24 05:02:51;;;;;;;7.00;6.30;;;;;;;24.37;82.56;100643.38;5027284;28;20481;-63
2023/08/24 05:05:17;;;;;;;8.98;6.53;;;;;;;24.38;82.33;100642.31;5030695;28;20038;-63
2023/08/24 05:07:42;;;;;;;9.88;6.30;;;;;;;24.43;82.26;100642.44;5028081;28;20045;-64
2023/08/24 05:10:08;;;;;;;6.40;5.80;;;;;;;24.47;82.40;100643.59;5028873;28;20045;-63
2023/08/24 05:12:35;;;;;;;6.68;5.78;;;;;;;24.46;82.59;100641.16;5032684;28;20032;-63
2023/08/24 05:15:04;;;;;;;6.55;5.75;;;;;;;24.44;82.92;100640.59;5028028;28;20029;-63
2023/08/24 05:17:31;;;;;;;8.15;6.03;;;;;;;24.51;82.57;100641.28;5035329;28;20036;-63
2023/08/24 05:19:57;;;;;;;9.27;6.00;;;;;;;24.59;82.34;100640.91;5027565;28;20034;-64
2023/08/24 05:22:22;;;;;;;10.60;5.97;;;;;;;24.56;82.72;100641.41;5028094;28;20038;-63
2023/08/24 05:24:47;;;;;;;6.30;5.28;;;;;;;24.52;82.80;100639.44;5021089;28;20026;-64
2023/08/24 05:27:13;;;;;;;9.60;7.03;;;;;;;24.52;82.50;100637.59;5033833;28;20091;-64
2023/08/24 05:29:38;;;;;;;11.15;6.22;;;;;;;24.56;82.49;100651.25;5029556;28;20036;-64
2023/08/24 05:32:04;;;;;;;10.75;6.22;;;;;;;24.60;82.53;100645.19;5026900;28;20041;-64
2023/08/24 05:34:29;;;;;;;8.50;5.88;;;;;;;24.63;82.24;100643.94;5029314;28;20033;-64
2023/08/24 05:36:55;;;;;;;11.15;6.25;;;;;;;24.63;82.34;100633.28;5026305;28;20060;-64
2023/08/24 05:39:20;;;;;;;7.50;6.00;;;;;;;24.69;82.38;100641.16;5026649;28;20041;-64
2023/08/24 05:41:46;;;;;;;9.30;6.95;;;;;;;24.74;82.03;100643.13;5025317;28;20026;-65
2023/08/24 05:44:11;;;;;;;9.88;6.22;;;;;;;24.79;81.65;100641.38;5032098;28;20033;-65
2023/08/24 05:46:37;;;;;;;8.98;6.28;;;;;;;24.87;81.61;100642.88;5027045;28;20473;-65
2023/08/24 05:49:02;;;;;;;11.90;6.35;;;;;;;24.90;81.47;100650.41;5038011;28;20037;-65
2023/08/24 05:51:28;;;;;;;9.60;6.38;;;;;;;24.91;81.34;100644.03;5026449;28;20423;-65
2023/08/24 05:53:55;;;;;;;13.25;6.45;;;;;;;24.98;81.50;100643.94;5030068;28;20045;-65
2023/08/24 05:56:24;;;;;;;10.90;6.63;;;;;;;25.01;81.47;100643.47;5033776;28;20521;-65
2023/08/24 05:58:50;;;;;;;11.85;6.95;;;;;;;25.08;81.09;100638.78;5022511;28;20029;-64
2023/08/24 06:01:16;;;;;;;8.98;6.00;;;;;;;25.16;80.64;100641.09;5018977;28;20095;-64
2023/08/24 06:03:41;;;;;;;9.75;5.00;;;;;;;25.29;79.81;100637.34;5025341;28;20412;-65
2023/08/24 06:06:08;;;;;;;11.98;6.80;;;;;;;25.37;79.70;100644.97;5028769;28;20095;-65
2023/08/24 06:08:34;;;;;;;9.25;5.93;;;;;;;25.43;79.38;100647.50;5024379;28;20057;-65
2023/08/24 06:11:00;;;;;;;9.98;6.07;;;;;;;25.57;78.71;100648.00;5027634;28;20049;-65
2023/08/24 06:13:26;;;;;;;7.53;6.82;;;;;;;25.69;78.25;100648.00;5027718;28;20388;-64
2023/08/24 06:15:51;;;;;;;10.95;5.93;;;;;;;25.81;77.43;100643.41;5024464;28;20042;-65
2023/08/24 06:18:17;;;;;;;6.88;6.18;;;;;;;25.85;77.41;100641.88;5035051;28;20036;-65
2023/08/24 06:20:42;;;;;;;6.68;5.97;;;;;;;25.96;76.72;100650.88;5032736;28;20052;-65
2023/08/24 06:23:08;;;;;;;6.30;5.60;;;;;;;26.02;76.29;100653.38;5029030;28;20128;-65
2023/08/24 06:25:34;;;;;;;8.48;5.72;;;;;;;26.03;76.63;100652.31;5022623;28;20034;-65
2023/08/24 06:27:59;;;;;;;8.63;5.85;;;;;;;26.06;76.32;100651.03;5034887;28;20109;-64
2023/08/24 06:30:26;;;;;;;7.93;5.88;;;;;;;26.12;76.36;100650.88;5025969;28;20041;-65
2023/08/24 06:32:52;;;;;;;9.80;6.53;;;;;;;26.15;76.77;100652.25;5021027;28;20065;-64
2023/08/24 06:35:18;;;;;;;11.40;5.68;;;;;;;26.21;76.68;100648.63;5021171;28;20073;-65
2023/08/24 06:37:43;;;;;;;8.63;6.05;;;;;;;26.26;76.62;100651.38;5022362;28;20045;-65
2023/08/24 06:40:09;;;;;;;7.18;5.85;;;;;;;26.28;76.69;100651.13;5019475;28;20037;-64
2023/08/24 06:42:35;;;;;;;12.52;6.55;;;;;;;26.32;76.66;100649.63;5026506;28;20113;-64
2023/08/24 06:45:00;;;;;;;11.98;6.93;;;;;;;26.39;76.48;100651.06;5023369;28;20405;-65
2023/08/24 06:47:26;;;;;;;11.07;6.30;;;;;;;26.49;76.01;100653.06;5015370;28;20036;-64
2023/08/24 06:49:51;;;;;;;10.32;5.60;;;;;;;26.58;75.83;100646.25;5023338;28;20029;-65
2023/08/24 06:52:17;;;;;;;8.48;6.20;;;;;;;26.66;75.79;100645.84;5025282;28;20037;-65
2023/08/24 06:54:42;;;;;;;7.75;6.00;;;;;;;26.74;75.39;100647.28;5020186;28;20499;-65
2023/08/24 06:57:07;;;;;;;6.85;5.90;;;;;;;26.81;75.25;100647.09;5028807;28;20033;-65
2023/08/24 06:59:33;;;;;;;6.00;5.50;;;;;;;26.95;74.76;100648.34;5029714;28;20400;-65
2023/08/24 07:01:59;;;;;;;7.07;5.97;;;;;;;26.99;74.31;100644.16;5021934;28;20588;-65
2023/08/24 07:04:26;;;;;;;11.30;7.00;;;;;;;27.01;74.61;100642.03;5022600;28;20101;-65
2023/08/24 07:06:52;;;;;;;8.52;5.65;;;;;;;27.06;74.55;100644.78;5014891;28;20138;-65
2023/08/24 07:09:19;;;;;;;10.93;6.47;;;;;;;27.11;74.51;100647.50;5029535;28;20775;-65
2023/08/24 07:11:44;;;;;;;13.45;5.85;;;;;;;27.16;74.87;100649.44;5028500;28;20029;-65
2023/08/24 07:14:10;;;;;;;8.65;5.63;;;;;;;27.14;74.42;100647.03;5023749;28;20026;-64
2023/08/24 07:16:35;;;;;;;7.78;6.10;;;;;;;27.26;74.24;100653.06;5020173;28;20034;-64
2023/08/24 07:19:00;;;;;;;6.82;5.47;;;;;;;27.35;74.09;100637.38;5027383;28;20030;-64
2023/08/24 07:21:26;;;;;;;8.88;6.40;;;;;;;27.48;73.90;100636.94;5020394;28;20120;-64
2023/08/24 07:23:51;;;;;;;13.63;5.80;;;;;;;27.48;73.68;100636.16;5022986;28;20038;-63
2023/08/24 07:26:17;;;;;;;10.63;6.78;;;;;;;27.56;73.99;100641.03;5029788;28;20112;-64
2023/08/24 07:28:42;;;;;;;8.85;6.15;;;;;;;27.67;74.00;100640.13;5026847;28;20037;-64
2023/08/24 07:31:11;;;;;;;14.75;5.93;;;;;;;27.78;72.76;100641.03;5023239;28;20042;-64
2023/08/24 07:33:40;;;;;;;10.80;5.78;;;;;;;27.85;72.84;100637.09;5024465;28;20030;-64
2023/08/24 07:36:06;;;;;;;12.30;5.60;;;;;;;27.93;72.33;100647.31;5028400;28;20132;-64
2023/08/24 07:38:32;;;;;;;6.82;5.65;;;;;;;28.03;72.55;100638.56;5027187;28;20026;-64
2023/08/24 07:40:58;;;;;;;7.70;5.40;;;;;;;28.10;71.80;100639.16;5009231;28;20042;-64
2023/08/24 07:43:24;;;;;;;10.30;6.20;;;;;;;28.13;71.76;100643.19;5025489;28;20456;-63
2023/08/24 07:45:50;;;;;;;7.70;6.68;;;;;;;28.27;71.15;100642.53;5020045;28;20079;-65
2023/08/24 07:48:15;;;;;;;6.82;5.63;;;;;;;28.35;71.53;100642.06;5005479;28;20034;-64
2023/08/24 07:50:41;;;;;;;7.05;6.35;;;;;;;28.52;71.34;100635.72;4999551;28;20560;-64
2023/08/24 07:53:06;;;;;;;7.88;5.75;;;;;;;28.67;70.92;100639.31;5005500;28;20029;-64
2023/08/24 07:55:32;;;;;;;13.40;5.80;;;;;;;28.74;70.89;100636.38;5004184;28;20030;-64
2023/08/24 07:57:57;;;;;;;9.68;6.20;;;;;;;28.83;70.88;100644.78;5008689;28;20033;-65
2023/08/24 08:00:24;;;;;;;7.57;5.97;;;;;;;28.94;70.59;100649.09;5003856;28;20365;-64
2023/08/24 08:02:52;;;;;;;8.05;5.75;;;;;;;28.99;71.10;100643.75;5020157;28;20481;-66
2023/08/24 08:05:18;;;;;;;8.48;5.80;;;;;;;29.12;70.53;100645.16;5023734;28;20079;-63
2023/08/24 08:07:44;;;;;;;7.68;5.75;;;;;;;29.24;70.03;100648.44;5021991;28;20057;-64
2023/08/24 08:10:10;;;;;;;7.90;6.25;;;;;;;29.29;69.08;100657.31;5021460;28;20041;-63
2023/08/24 08:12:35;;;;;;;7.50;6.00;;;;;;;29.35;68.80;100655.41;5019548;28;20516;-64
2023/08/24 08:15:01;;;;;;;8.48;5.95;;;;;;;29.47;68.61;100657.91;5020974;28;20435;-64
2023/08/24 08:17:30;;;;;;;9.60;5.30;;;;;;;29.55;67.43;100660.88;5018712;28;20037;-64
2023/08/24 08:19:56;;;;;;;6.15;5.55;;;;;;;29.61;67.64;100657.13;5020011;28;20450;-63
2023/08/24 08:22:22;;;;;;;6.63;5.70;;;;;;;29.72;66.64;100660.66;5032244;28;20040;-64
2023/08/24 08:24:48;;;;;;;9.05;6.00;;;;;;;29.86;67.13;100661.72;5033126;28;20105;-64
2023/08/24 08:27:13;;;;;;;6.28;5.43;;;;;;;29.87;67.37;100655.25;5028873;28;20124;-64
2023/08/24 08:29:39;;;;;;;7.75;5.60;;;;;;;29.89;66.43;100655.81;5024324;28;20116;-63
2023/08/24 08:32:05;;;;;;;6.70;5.65;;;;;;;30.00;66.63;100651.28;5024892;28;20029;-63
2023/08/24 08:34:31;;;;;;;9.80;6.82;;;;;;;30.01;65.33;100651.00;5021026;28;20029;-63
2023/08/24 08:36:57;;;;;;;7.47;5.78;;;;;;;30.13;64.31;100655.31;5026445;28;20064;-64
2023/08/24 08:39:23;;;;;;;8.27;6.25;;;;;;;30.18;64.55;100656.13;5023125;28;20034;-63
2023/08/24 08:41:49;;;;;;;7.68;6.43;;;;;;;30.28;65.24;100653.41;5024289;28;20033;-64
2023/08/24 08:44:14;;;;;;;7.32;5.72;;;;;;;30.30;65.07;100647.75;5022222;28;20072;-63
2023/08/24 08:46:43;;;;;;;8.63;5.63;;;;;;;30.34;65.83;100651.50;5025519;28;20079;-64
2023/08/24 08:49:10;;;;;;;8.55;5.97;;;;;;;30.42;65.22;100658.22;5022580;28;20579;-63
2023/08/24 08:51:36;;;;;;;10.65;6.38;;;;;;;30.37;65.58;100654.47;5019072;28;20034;-63
2023/08/24 08:54:05;;;;;;;8.20;5.93;;;;;;;30.40;64.60;100666.56;5021976;28;20037;-64
2023/08/24 08:56:31;;;;;;;8.63;5.97;;;;;;;30.38;64.49;100663.34;5018155;28;20026;-63
2023/08/24 08:58:59;;;;;;;8.75;5.82;;;;;;;30.29;64.50;100659.56;5027895;28;20065;-64
2023/08/24 09:01:25;;;;;;;11.00;6.13;;;;;;;30.30;65.65;100663.88;5018541;28;20124;-64
2023/08/24 09:03:51;;;;;;;10.40;6.13;;;;;;;30.29;64.82;100660.38;5020477;28;20042;-64
2023/08/24 09:06:17;;;;;;;11.23;6.28;;;;;;;30.27;65.47;100657.16;5022411;28;20033;-63
2023/08/24 09:08:43;;;;;;;9.52;6.28;;;;;;;30.35;65.20;100661.19;5023692;28;20036;-64
2023/08/24 09:11:09;;;;;;;8.07;6.90;;;;;;;30.47;64.39;100667.09;5028866;28;20103;-64
2023/08/24 09:13:35;;;;;;;10.95;6.15;;;;;;;30.47;65.29;100663.59;5025561;28;20436;-64
2023/08/24 09:16:06;;;;;;;8.52;6.55;;;;;;;30.42;64.92;100661.72;5028951;28;20033;-64
2023/08/24 09:18:39;;;;;;;9.57;6.80;;;;;;;30.31;67.01;100662.81;5027353;28;20084;-64
2023/08/24 09:21:09;;;;;;;8.05;6.53;;;;;;;30.31;65.72;100663.59;5028692;28;20033;-64
2023/08/24 09:23:34;;;;;;;8.43;6.93;;;;;;;30.37;64.99;100661.72;5024575;28;20400;-64
2023/08/24 09:26:00;;;;;;;6.60;6.00;;;;;;;30.45;65.02;100663.88;5023919;28;20030;-63
2023/08/24 09:28:26;;;;;;;9.02;6.22;;;;;;;30.59;64.47;100662.25;5026758;28;20107;-63
2023/08/24 09:30:56;;;;;;;7.43;6.70;;;;;;;30.72;64.37;100649.34;5022458;28;20037;-63
2023/08/24 09:33:25;;;;;;;9.38;6.75;;;;;;;30.71;64.76;100650.41;5020852;28;20125;-63
2023/08/24 09:36:01;;;;;;;7.72;6.43;;;;;;;30.61;66.36;100643.16;5020730;28;20037;-63
2023/08/24 09:38:28;;;;;;;9.60;7.50;;;;;;;30.41;66.89;100643.19;5023942;28;20075;-63
2023/08/24 09:40:55;;;;;;;7.00;6.30;;;;;;;30.59;64.48;100643.44;5018654;28;20481;-64
2023/08/24 09:43:21;;;;;;;9.00;6.65;;;;;;;30.67;63.73;100634.81;5029867;28;20098;-63
2023/08/24 09:45:52;;;;;;;7.00;6.30;;;;;;;30.66;63.56;100627.84;5026040;28;20041;-63
2023/08/24 09:48:18;;;;;;;10.07;6.97;;;;;;;30.85;62.98;100627.22;5033053;28;20168;-63
2023/08/24 09:50:47;;;;;;;6.95;6.25;;;;;;;30.92;62.52;100633.91;5023555;28;20116;-63
2023/08/24 09:53:23;;;;;;;6.72;6.00;;;;;;;30.94;61.70;100628.25;5017109;28;20034;-63
2023/08/24 09:55:55;;;;;;;8.60;6.70;;;;;;;30.94;61.33;100618.28;5019424;28;20033;-64
2023/08/24 09:58:22;;;;;;;6.50;5.95;;;;;;;30.96;61.42;100621.53;5028576;28;20052;-63
2023/08/24 10:00:49;;;;;;;7.72;5.95;;;;;;;31.13;60.06;100617.72;5015721;28;20044;-63
2023/08/24 10:03:24;;;;;;;8.73;6.72;;;;;;;31.11;60.52;100612.56;5023901;28;20473;-63
2023/08/24 10:05:54;;;;;;;6.85;5.13;;;;;;;31.13;58.17;100615.81;5020365;28;20486;-63
2023/08/24 10:08:27;;;;;;;6.35;5.75;;;;;;;31.12;58.63;100618.75;5017805;28;20128;-63
2023/08/24 10:10:55;;;;;;;7.55;5.13;;;;;;;30.98;59.72;100605.09;5013563;28;20504;-62
2023/08/24 10:13:49;;;;;;;6.80;5.60;;;;;;;31.16;58.37;100603.69;5029836;28;20092;-62
2023/08/24 10:16:16;;;;;;;4.80;4.03;;;;;;;31.34;56.98;100611.91;5016894;28;20059;-62
2023/08/24 10:18:42;;;;;;;5.68;4.75;;;;;;;31.49;54.87;100597.56;5018689;28;20030;-62
2023/08/24 10:21:10;;;;;;;5.82;5.22;;;;;;;31.56;54.73;100598.06;5021539;28;20133;-62
2023/08/24 10:23:37;;;;;;;5.53;4.60;;;;;;;31.54;55.68;100602.91;5026397;28;20034;-62
2023/08/24 10:26:05;;;;;;;6.32;3.78;;;;;;;31.70;54.20;100595.53;5017535;28;20048;-62
2023/08/24 10:28:32;;;;;;;5.72;5.13;;;;;;;31.55;54.64;100595.63;5013985;28;20113;-62
2023/08/24 10:30:59;;;;;;;4.25;3.85;;;;;;;31.80;51.31;100591.94;5019101;28;20033;-62
2023/08/24 10:33:26;;;;;;;6.55;4.63;;;;;;;31.79;52.02;100587.66;5020042;28;20034;-63
2023/08/24 10:35:52;;;;;;;4.45;4.03;;;;;;;31.85;51.04;100590.03;5022938;28;20093;-62
2023/08/24 10:38:29;;;;;;;4.53;3.60;;;;;;;31.95;50.58;100583.75;5028002;28;20388;-62
2023/08/24 10:41:03;;;;;;;6.68;4.13;;;;;;;31.89;52.25;100569.50;5020297;28;20052;-63
2023/08/24 10:43:28;;;;;;;11.18;4.80;;;;;;;31.65;54.36;100579.41;5025956;28;20065;-62
2023/08/24 10:45:58;;;;;;;5.07;4.57;;;;;;;31.63;54.88;100574.31;5022739;28;20065;-63
2023/08/24 10:48:28;;;;;;;5.47;4.50;;;;;;;31.82;52.54;100579.81;5026301;28;20029;-62
2023/08/24 10:51:21;;;;;;;5.53;4.25;;;;;;;32.03;50.96;100568.84;5030244;28;20100;-62
2023/08/24 10:53:55;;;;;;;4.47;4.00;;;;;;;32.07;52.02;100568.00;5018442;28;20034;-62
2023/08/24 10:56:21;;;;;;;4.50;4.10;;;;;;;32.19;52.17;100570.28;5030023;28;20037;-63
2023/08/24 10:59:08;;;;;;;7.15;4.38;;;;;;;32.06;51.11;100568.28;5021357;28;20034;-62
2023/08/24 11:01:38;;;;;;;5.25;4.30;;;;;;;31.88;52.32;100562.53;5027853;28;20120;-62
2023/08/24 11:04:06;;;;;;;5.78;4.32;;;;;;;31.69;53.71;100564.28;5015297;28;20044;-63
2023/08/24 11:06:32;;;;;;;8.55;4.10;;;;;;;31.63;54.36;100565.41;5023074;28;20116;-63
2023/08/24 11:09:17;;;;;;;5.22;3.92;;;;;;;31.97;53.97;100563.50;5013405;28;20087;-63
2023/08/24 11:11:55;;;;;;;4.80;4.30;;;;;;;32.07;52.92;100562.63;5015850;28;20026;-63
2023/08/24 11:14:26;;;;;;;7.32;4.53;;;;;;;32.18;51.70;100566.00;5009922;28;20040;-63
2023/08/24 11:16:52;;;;;;;6.22;4.40;;;;;;;32.14;52.18;100575.75;5010399;28;20033;-64
2023/08/24 11:19:18;;;;;;;6.45;4.45;;;;;;;32.20;53.10;100571.91;5008614;28;20060;-64
2023/08/24 11:21:45;;;;;;;4.80;4.30;;;;;;;32.12;52.40;100575.25;5005936;28;20042;-70
2023/08/24 11:24:13;;;;;;;5.88;5.07;;;;;;;32.23;52.32;100574.06;4990415;28;20037;-65